Time;durP1;ratioP1;P1;durP2;ratioP2;P2;SDS_P1;SDS_P2;PMS_P1;PMS_P2;Temp;Humidity;BMP_temperature;BMP_pressure;BME280_temperature;BME280_humidity;BME280_pressure;Samples;Min_cycle;Max_cycle;Signal;HPM_P1;HPM_P2
2023/02/21 02:16:05;;;;;;;84.32;37.75;;;;;;;12.17;62.75;101952.06;4934106;28;114332;-67
2023/02/21 02:19:14;;;;;;;87.68;38.20;;;;;;;12.16;62.80;101949.47;4948859;28;115499;-67
2023/02/21 02:22:10;;;;;;;82.78;36.85;;;;;;;12.12;62.87;101948.69;4907430;28;123707;-68
2023/02/21 02:25:08;;;;;;;84.18;36.70;;;;;;;12.12;62.87;101943.38;4939243;28;123411;-67
2023/02/21 02:27:57;;;;;;;80.28;36.03;;;;;;;12.13;62.81;101950.44;4946996;28;113489;-67
2023/02/21 02:31:01;;;;;;;84.00;37.47;;;;;;;12.13;62.95;101945.13;4950619;28;113679;-67
2023/02/21 02:34:05;;;;;;;89.05;36.67;;;;;;;12.12;62.94;101942.53;4949447;28;123469;-67
2023/02/21 02:36:46;;;;;;;82.40;35.70;;;;;;;12.13;62.90;101950.44;4932975;28;123942;-67
2023/02/21 02:39:43;;;;;;;80.80;36.53;;;;;;;12.13;62.94;101950.44;4934717;28;113448;-67
2023/02/21 02:42:31;;;;;;;77.25;34.72;;;;;;;12.11;63.02;101946.97;4917344;28;113751;-68
2023/02/21 02:45:24;;;;;;;85.38;36.42;;;;;;;12.11;63.05;101951.41;4929355;28;122713;-68
2023/02/21 02:47:57;;;;;;;78.57;34.80;;;;;;;12.11;63.09;101952.28;4948114;28;124493;-67
2023/02/21 02:50:28;;;;;;;82.10;35.78;;;;;;;12.12;62.92;101948.69;4932649;28;113583;-67
2023/02/21 02:53:01;;;;;;;87.55;37.22;;;;;;;12.12;63.00;101948.69;4918184;28;113183;-67
2023/02/21 02:55:36;;;;;;;79.15;35.92;;;;;;;12.11;63.07;101949.63;4931867;28;123774;-67
2023/02/21 02:58:04;;;;;;;84.45;35.67;;;;;;;12.11;63.08;101952.28;4952067;28;123695;-67
2023/02/21 03:00:36;;;;;;;83.15;36.60;;;;;;;12.10;63.31;101934.59;4930306;28;113341;-67
2023/02/21 03:03:39;;;;;;;84.88;36.13;;;;;;;12.08;63.14;101937.31;4952632;28;114274;-67
2023/02/21 03:06:22;;;;;;;88.05;36.45;;;;;;;12.07;63.06;101934.69;4946286;28;123275;-67
2023/02/21 03:09:14;;;;;;;78.55;35.35;;;;;;;12.04;63.08;101930.38;4934203;28;123588;-67
2023/02/21 03:12:05;;;;;;;81.13;34.88;;;;;;;12.03;63.15;101927.75;4948581;28;115799;-67
2023/02/21 03:14:43;;;;;;;80.93;34.58;;;;;;;12.03;63.21;101927.75;4948984;28;115799;-69
2023/02/21 03:17:17;;;;;;;85.35;36.13;;;;;;;12.03;63.31;101939.22;4917224;28;123284;-67
2023/02/21 03:19:49;;;;;;;81.93;34.92;;;;;;;12.03;63.24;101938.38;4933811;28;123509;-66
2023/02/21 03:22:23;;;;;;;86.20;35.67;;;;;;;12.06;63.21;101938.28;4934080;28;113867;-67
2023/02/21 03:24:53;;;;;;;80.53;34.85;;;;;;;12.06;63.38;101943.59;4928796;28;114092;-69
2023/02/21 03:27:21;;;;;;;87.50;36.15;;;;;;;12.04;63.30;101940.13;4933175;28;123086;-68
2023/02/21 03:30:03;;;;;;;80.18;34.72;;;;;;;12.06;63.35;101938.28;4951159;28;124103;-68
2023/02/21 03:32:40;;;;;;;78.47;34.03;;;;;;;12.06;63.30;101932.97;4949737;28;114442;-68
2023/02/21 03:35:08;;;;;;;88.03;35.28;;;;;;;12.07;63.41;101934.69;4921262;28;113641;-68
2023/02/21 03:37:40;;;;;;;85.10;34.30;;;;;;;12.07;63.42;101924.06;4933082;28;123212;-68
2023/02/21 03:40:23;;;;;;;82.10;33.95;;;;;;;12.06;63.45;101933.84;4932541;28;122802;-68
2023/02/21 03:42:52;;;;;;;85.30;35.15;;;;;;;12.07;63.34;101934.69;4919041;28;113266;-69
2023/02/21 03:45:20;;;;;;;78.15;33.88;;;;;;;12.07;63.50;101935.59;4932470;28;113148;-68
2023/02/21 03:48:01;;;;;;;83.53;34.50;;;;;;;12.07;63.41;101937.34;4933221;28;123920;-68
2023/02/21 03:50:30;;;;;;;89.82;36.08;;;;;;;12.09;63.42;101938.16;4918022;28;122516;-68
2023/02/21 03:52:58;;;;;;;88.47;36.40;;;;;;;12.08;63.40;101941.75;4931502;28;113293;-67
2023/02/21 03:55:25;;;;;;;92.10;34.80;;;;;;;12.07;63.49;101945.31;4933693;28;113285;-68
2023/02/21 03:57:53;;;;;;;82.80;33.88;;;;;;;12.07;63.49;101943.56;4931985;28;123047;-68
2023/02/21 04:00:24;;;;;;;82.93;35.03;;;;;;;12.06;63.47;101938.28;4930336;28;122939;-68
2023/02/21 04:02:53;;;;;;;80.65;33.03;;;;;;;12.07;63.48;101945.31;4939260;28;114343;-68
2023/02/21 04:05:47;;;;;;;88.13;35.33;;;;;;;12.08;63.57;101941.75;4943976;28;114913;-68
2023/02/21 04:08:14;;;;;;;88.30;34.40;;;;;;;12.09;63.39;101938.16;4932412;28;123030;-68
2023/02/21 04:10:42;;;;;;;84.85;34.65;;;;;;;12.07;63.57;101942.66;4948112;28;124025;-68
2023/02/21 04:13:19;;;;;;;84.80;34.17;;;;;;;12.06;63.50;101938.28;4933053;28;113341;-68
2023/02/21 04:15:49;;;;;;;85.57;34.97;;;;;;;12.07;63.60;101924.06;4930843;28;113223;-67
2023/02/21 04:18:16;;;;;;;85.50;34.47;;;;;;;12.06;63.75;101922.34;4917031;28;123988;-67
2023/02/21 04:20:46;;;;;;;84.97;34.78;;;;;;;12.06;63.53;101917.03;4934299;28;124038;-69
2023/02/21 04:23:20;;;;;;;84.00;34.30;;;;;;;12.05;63.85;101915.28;4934390;28;113560;-67
2023/02/21 04:25:48;;;;;;;92.03;34.95;;;;;;;12.04;63.67;101913.56;4951796;28;113084;-68
2023/02/21 04:28:22;;;;;;;84.47;33.43;;;;;;;12.03;63.67;101918.00;4935161;28;126296;-67
2023/02/21 04:30:50;;;;;;;88.53;35.33;;;;;;;12.03;63.74;101917.13;4950592;28;124222;-68
2023/02/21 04:33:18;;;;;;;82.65;34.10;;;;;;;12.03;63.72;101922.44;4935745;28;113369;-67
2023/02/21 04:35:47;;;;;;;88.05;34.45;;;;;;;12.05;63.75;101920.59;4935253;28;113084;-68
2023/02/21 04:38:24;;;;;;;86.28;35.35;;;;;;;12.04;63.71;101926.84;4952824;28;126798;-68
2023/02/21 04:40:52;;;;;;;88.50;34.88;;;;;;;12.07;63.82;101924.06;4934466;28;123111;-68
2023/02/21 04:43:20;;;;;;;83.50;34.30;;;;;;;12.09;63.75;101922.22;4935864;28;113657;-68
2023/02/21 04:45:48;;;;;;;92.57;35.75;;;;;;;12.09;63.66;101919.56;4935951;28;114322;-68
2023/02/21 04:48:16;;;;;;;97.25;35.85;;;;;;;12.09;63.78;101916.91;4934677;28;123620;-68
2023/02/21 04:50:43;;;;;;;92.90;34.25;;;;;;;12.10;63.82;101913.34;4951051;28;124112;-68
2023/02/21 04:53:10;;;;;;;97.75;36.50;;;;;;;12.08;63.74;101904.56;4953272;28;114648;-68
2023/02/21 04:55:38;;;;;;;95.68;34.28;;;;;;;12.06;63.71;101911.72;4950383;28;114755;-68
2023/02/21 04:58:05;;;;;;;92.72;35.58;;;;;;;12.03;63.78;101906.50;4953371;28;124063;-68
2023/02/21 05:00:32;;;;;;;95.50;36.47;;;;;;;12.04;63.54;101908.25;4950578;28;124544;-68
2023/02/21 05:03:00;;;;;;;97.05;35.22;;;;;;;12.01;63.80;101903.03;4936453;28;113550;-68
2023/02/21 05:05:27;;;;;;;93.30;35.78;;;;;;;12.02;63.93;101908.31;4951676;28;114643;-68
2023/02/21 05:07:55;;;;;;;89.07;34.88;;;;;;;12.00;63.89;101902.19;4933253;28;122985;-68
2023/02/21 05:10:23;;;;;;;94.97;34.97;;;;;;;12.01;63.99;101911.00;4952861;28;124004;-68
2023/02/21 05:13:02;;;;;;;97.95;35.08;;;;;;;12.01;63.99;101913.66;4949582;28;113790;-68
2023/02/21 05:15:30;;;;;;;99.47;36.45;;;;;;;12.03;63.93;101917.13;4950608;28;114201;-67
2023/02/21 05:17:58;;;;;;;107.32;35.63;;;;;;;12.02;63.92;101907.44;4951358;28;124094;-68
2023/02/21 05:20:25;;;;;;;88.88;33.42;;;;;;;12.01;63.94;101903.03;4935155;28;122637;-68
2023/02/21 05:22:52;;;;;;;96.65;34.72;;;;;;;11.99;64.08;101910.19;4950701;28;114528;-67
2023/02/21 05:25:23;;;;;;;100.30;34.70;;;;;;;11.99;64.01;101912.84;4933300;28;114112;-68
2023/02/21 05:27:52;;;;;;;106.45;35.53;;;;;;;11.98;64.12;101913.75;4933163;28;122958;-68
2023/02/21 05:30:24;;;;;;;100.13;34.65;;;;;;;11.97;64.13;101917.34;4932816;28;123841;-68
2023/02/21 05:32:52;;;;;;;99.05;35.83;;;;;;;11.96;64.41;101919.16;4925731;28;113768;-68
2023/02/21 05:35:19;;;;;;;106.72;35.28;;;;;;;11.95;64.15;101913.88;4932954;28;114155;-67
2023/02/21 05:37:46;;;;;;;106.28;36.10;;;;;;;11.95;64.14;101909.44;4934907;28;123564;-68
2023/02/21 05:40:15;;;;;;;125.60;35.67;;;;;;;11.94;64.31;101912.13;4950358;28;124294;-68
2023/02/21 05:42:42;;;;;;;97.05;34.47;;;;;;;11.95;64.35;101906.78;4952123;28;115878;-68
2023/02/21 05:45:10;;;;;;;111.57;36.83;;;;;;;11.97;64.21;101912.03;4950972;28;115016;-68
2023/02/21 05:47:38;;;;;;;106.03;35.55;;;;;;;11.97;64.30;101912.03;4918897;28;122891;-68
2023/02/21 05:50:05;;;;;;;104.43;37.00;;;;;;;11.96;64.26;101920.91;4952874;28;124872;-68
2023/02/21 05:52:33;;;;;;;108.80;35.22;;;;;;;11.97;64.43;101922.66;4950789;28;114062;-68
2023/02/21 05:55:00;;;;;;;119.03;36.00;;;;;;;11.98;64.42;101924.38;4950618;28;114483;-68
2023/02/21 05:57:27;;;;;;;109.57;36.60;;;;;;;11.99;64.40;101920.81;4949946;28;124645;-68
2023/02/21 05:59:54;;;;;;;105.78;35.35;;;;;;;11.98;64.35;101914.66;4931845;28;124705;-67
2023/02/21 06:02:21;;;;;;;122.13;36.28;;;;;;;12.00;64.43;101922.56;4935281;28;114116;-67
2023/02/21 06:04:49;;;;;;;125.07;36.22;;;;;;;11.99;64.43;101921.69;4935494;28;113058;-67
2023/02/21 06:07:17;;;;;;;138.40;37.10;;;;;;;11.98;64.31;101924.38;4949830;28;124119;-67
2023/02/21 06:09:44;;;;;;;123.38;34.28;;;;;;;11.97;64.33;101922.66;4949930;28;123927;-68
2023/02/21 06:12:12;;;;;;;124.22;35.42;;;;;;;11.94;64.45;101923.66;4933884;28;113598;-67
2023/02/21 06:14:39;;;;;;;132.27;35.40;;;;;;;11.93;64.49;101926.34;4952370;28;114217;-67
2023/02/21 06:17:06;;;;;;;128.57;35.45;;;;;;;11.91;64.51;101928.19;4949047;28;125580;-67
2023/02/21 06:19:33;;;;;;;134.40;36.38;;;;;;;11.90;64.56;101927.28;4949955;28;124121;-67
2023/02/21 06:22:01;;;;;;;120.35;36.35;;;;;;;11.90;64.62;101923.78;4951526;28;114691;-68
2023/02/21 06:24:28;;;;;;;137.50;35.95;;;;;;;11.90;64.64;101934.41;4953250;28;114557;-73
2023/02/21 06:26:56;;;;;;;144.98;35.92;;;;;;;11.88;64.61;101930.00;4933549;28;122860;-67
2023/02/21 06:29:23;;;;;;;121.03;35.38;;;;;;;11.90;64.49;101929.09;4949784;28;123893;-69
2023/02/21 06:31:56;;;;;;;123.53;33.85;;;;;;;11.88;64.60;101927.34;4951615;28;115408;-68
2023/02/21 06:34:24;;;;;;;109.85;32.20;;;;;;;11.87;64.63;101930.91;4932322;28;115275;-68
2023/02/21 06:36:55;;;;;;;109.15;33.35;;;;;;;11.86;64.70;101937.09;4948884;28;124116;-67
2023/02/21 06:39:23;;;;;;;104.95;31.80;;;;;;;11.85;64.69;101935.38;4949977;28;125287;-70
2023/02/21 06:41:50;;;;;;;95.38;30.80;;;;;;;11.85;64.67;101938.03;4933980;28;113227;-67
2023/02/21 06:44:18;;;;;;;93.95;30.08;;;;;;;11.85;64.68;101940.69;4952062;28;114077;-67
2023/02/21 06:46:49;;;;;;;93.40;29.98;;;;;;;11.85;64.81;101940.69;4948602;28;124145;-67
2023/02/21 06:49:16;;;;;;;100.32;30.17;;;;;;;11.86;64.65;101931.78;4948431;28;124885;-67
2023/02/21 06:51:43;;;;;;;87.28;30.42;;;;;;;11.85;64.70;101932.72;4931043;28;114229;-68
2023/02/21 06:54:11;;;;;;;94.85;30.80;;;;;;;11.87;64.83;101938.84;4949041;28;113968;-68
2023/02/21 06:56:39;;;;;;;96.57;29.65;;;;;;;11.88;64.75;101940.59;4946958;28;124716;-69
2023/02/21 06:59:07;;;;;;;84.10;29.95;;;;;;;11.90;64.72;101947.66;4948044;28;124376;-69
2023/02/21 07:01:34;;;;;;;81.72;27.27;;;;;;;11.91;64.66;101944.13;4932043;28;114326;-68
2023/02/21 07:04:01;;;;;;;82.45;27.90;;;;;;;11.90;64.69;101934.41;4949381;28;114235;-69
2023/02/21 07:06:29;;;;;;;84.40;27.08;;;;;;;11.91;64.62;101936.16;4932012;28;122907;-69
2023/02/21 07:08:57;;;;;;;72.22;24.70;;;;;;;11.89;64.63;101933.50;4924573;28;123572;-68
2023/02/21 07:11:24;;;;;;;67.72;24.70;;;;;;;11.86;64.63;101937.09;4948907;28;113313;-69
2023/02/21 07:13:53;;;;;;;68.03;26.00;;;;;;;11.84;64.62;101944.25;4949264;28;114740;-69
2023/02/21 07:16:21;;;;;;;68.82;24.52;;;;;;;11.83;64.69;101939.03;4946529;28;123948;-69
2023/02/21 07:18:48;;;;;;;69.35;24.40;;;;;;;11.81;64.65;101944.38;4947564;28;124025;-69
2023/02/21 07:21:17;;;;;;;67.72;23.13;;;;;;;11.81;64.85;101947.03;4949617;28;115978;-69
2023/02/21 07:23:45;;;;;;;62.08;23.13;;;;;;;11.80;65.04;101939.13;4934364;28;116312;-69
2023/02/21 07:26:13;;;;;;;62.75;22.58;;;;;;;11.80;64.74;101933.81;4951558;28;124645;-69
2023/02/21 07:28:41;;;;;;;52.75;21.40;;;;;;;11.79;64.75;101935.59;4933417;28;123539;-70
2023/02/21 07:31:09;;;;;;;55.67;19.00;;;;;;;11.78;64.88;101944.47;4948316;28;114397;-69
2023/02/21 07:33:37;;;;;;;43.60;14.32;;;;;;;11.79;64.94;101950.63;4914634;28;113070;-70
2023/02/21 07:36:04;;;;;;;42.42;14.48;;;;;;;11.79;64.82;101951.53;4946948;28;124135;-70
2023/02/21 07:38:31;;;;;;;41.42;14.63;;;;;;;11.80;64.73;101942.63;4951071;28;124842;-69
2023/02/21 07:41:01;;;;;;;40.63;14.00;;;;;;;11.81;64.86;101933.75;4947991;28;114266;-70
2023/02/21 07:43:29;;;;;;;39.50;14.25;;;;;;;11.80;64.58;101947.94;4949074;28;114375;-70
2023/02/21 07:45:57;;;;;;;36.28;13.45;;;;;;;11.79;64.59;101946.22;4946916;28;124123;-70
2023/02/21 07:48:24;;;;;;;38.88;13.82;;;;;;;11.78;64.61;101955.09;4915323;28;123277;-70
2023/02/21 07:50:51;;;;;;;37.65;13.02;;;;;;;11.79;64.95;101959.50;4931049;28;113121;-69
2023/02/21 07:53:19;;;;;;;41.03;13.93;;;;;;;11.80;64.74;101953.25;4930795;28;114505;-70
2023/02/21 07:55:46;;;;;;;36.22;13.93;;;;;;;11.84;64.70;101938.09;4930901;28;123240;-69
2023/02/21 07:58:13;;;;;;;40.03;13.77;;;;;;;11.83;64.61;101939.88;4933888;28;122949;-70
2023/02/21 08:00:42;;;;;;;33.08;12.68;;;;;;;11.81;64.64;101944.38;4949046;28;114541;-70
2023/02/21 08:03:12;;;;;;;35.83;12.25;;;;;;;11.81;64.68;101952.34;4946537;28;113027;-70
2023/02/21 08:05:39;;;;;;;37.97;12.20;;;;;;;11.81;64.65;101948.78;4949685;28;124196;-69
2023/02/21 08:08:08;;;;;;;29.77;11.90;;;;;;;11.80;64.72;101953.25;4948683;28;124115;-70
2023/02/21 08:10:35;;;;;;;33.90;12.25;;;;;;;11.82;64.54;101951.41;4949045;28;115344;-70
2023/02/21 08:13:04;;;;;;;29.27;10.95;;;;;;;11.83;64.67;101958.47;4951176;28;114952;-70
2023/02/21 08:15:31;;;;;;;27.83;10.27;;;;;;;11.83;64.75;101955.81;4928868;28;124171;-70
2023/02/21 08:17:58;;;;;;;31.23;11.07;;;;;;;11.83;64.47;101949.63;4933170;28;122731;-70
2023/02/21 08:20:26;;;;;;;32.30;11.40;;;;;;;11.82;64.76;101956.72;4943512;28;114266;-70
2023/02/21 08:22:53;;;;;;;28.10;10.57;;;;;;;11.81;64.72;101957.66;4932811;28;113905;-70
2023/02/21 08:25:20;;;;;;;27.23;10.38;;;;;;;11.82;64.70;101962.03;4948020;28;124420;-70
2023/02/21 08:27:52;;;;;;;28.15;10.50;;;;;;;11.84;64.69;101954.00;4950669;28;125070;-70
2023/02/21 08:30:21;;;;;;;22.65;10.18;;;;;;;11.84;64.67;101960.19;4950997;28;114870;-71
2023/02/21 08:32:50;;;;;;;26.90;9.95;;;;;;;11.84;64.83;101960.19;4950219;28;114024;-70
2023/02/21 08:35:18;;;;;;;27.90;10.48;;;;;;;11.86;64.67;101953.03;4937945;28;123981;-70
2023/02/21 08:37:47;;;;;;;28.10;10.43;;;;;;;11.87;64.78;101954.78;4948593;28;123849;-70
2023/02/21 08:40:18;;;;;;;23.80;9.18;;;;;;;11.89;64.75;101941.47;4933964;28;113312;-70
2023/02/21 08:42:50;;;;;;;25.30;9.15;;;;;;;11.88;64.79;101951.22;4932286;28;112043;-70
2023/02/21 08:45:21;;;;;;;26.02;9.93;;;;;;;11.92;64.82;101945.81;4945803;28;123467;-71
2023/02/21 08:47:50;;;;;;;26.77;9.45;;;;;;;11.92;64.82;101940.53;4928474;28;124693;-70
2023/02/21 08:50:19;;;;;;;26.77;8.85;;;;;;;11.93;64.61;101942.28;4946761;28;114688;-71
2023/02/21 08:52:48;;;;;;;23.63;9.00;;;;;;;11.93;64.64;101931.66;4932154;28;113112;-70
2023/02/21 08:55:16;;;;;;;28.50;9.98;;;;;;;11.94;64.66;101936.03;4946994;28;124217;-71
2023/02/21 08:57:43;;;;;;;28.30;10.23;;;;;;;11.94;64.55;101944.00;4929397;28;123798;-70
2023/02/21 09:00:13;;;;;;;26.25;10.70;;;;;;;11.94;64.76;101934.25;4947072;28;115756;-71
2023/02/21 09:02:40;;;;;;;24.50;9.48;;;;;;;11.95;64.69;101935.13;4950446;28;115530;-70
2023/02/21 09:05:13;;;;;;;27.33;10.20;;;;;;;11.94;64.85;101928.06;4944147;28;123615;-70
2023/02/21 09:07:41;;;;;;;26.95;9.68;;;;;;;11.95;64.74;101930.66;4944736;28;124099;-70
2023/02/21 09:10:09;;;;;;;28.25;9.95;;;;;;;11.98;64.78;101937.66;4931011;28;113611;-71
2023/02/21 09:12:37;;;;;;;29.52;9.93;;;;;;;11.99;64.84;101926.13;4952513;28;114558;-70
2023/02/21 09:15:05;;;;;;;27.48;9.68;;;;;;;11.99;64.66;101929.66;4930242;28;124084;-71
2023/02/21 09:17:33;;;;;;;22.45;9.25;;;;;;;12.00;64.71;101927.88;4947019;28;121868;-70
2023/02/21 09:20:06;;;;;;;20.25;8.80;;;;;;;12.00;64.82;101927.88;4949832;28;114557;-70
2023/02/21 09:22:34;;;;;;;27.40;9.43;;;;;;;12.01;64.81;101929.59;4953330;28;114169;-70
2023/02/21 09:25:02;;;;;;;26.52;8.80;;;;;;;12.01;64.70;101924.28;4949845;28;124214;-71
2023/02/21 09:27:35;;;;;;;23.98;9.32;;;;;;;12.02;64.83;101920.72;4951070;28;124239;-71
2023/02/21 09:30:14;;;;;;;25.15;9.68;;;;;;;12.00;64.69;101926.09;4931136;28;113559;-70
2023/02/21 09:32:41;;;;;;;22.02;8.18;;;;;;;12.01;64.73;101929.59;4953533;28;114696;-70
2023/02/21 09:35:09;;;;;;;25.88;9.35;;;;;;;12.01;64.75;101924.28;4949613;28;124104;-71
2023/02/21 09:37:38;;;;;;;22.42;8.32;;;;;;;12.00;64.56;101922.56;4935747;28;123182;-71
2023/02/21 09:40:34;;;;;;;20.48;8.35;;;;;;;12.00;64.62;101922.56;4931826;28;114360;-70
2023/02/21 09:43:03;;;;;;;20.90;8.13;;;;;;;12.01;64.52;101918.97;4940145;28;113098;-71
2023/02/21 09:45:33;;;;;;;18.00;8.00;;;;;;;12.00;64.78;101917.25;4951685;28;123936;-71
2023/02/21 09:48:07;;;;;;;20.08;8.50;;;;;;;12.02;64.77;101915.41;4952801;28;124221;-70
2023/02/21 09:50:43;;;;;;;23.63;8.27;;;;;;;12.04;65.10;101913.56;4926860;28;115712;-70
2023/02/21 09:53:15;;;;;;;22.35;8.50;;;;;;;12.05;64.73;101915.28;4954206;28;115407;-70
2023/02/21 09:55:42;;;;;;;22.90;8.25;;;;;;;12.07;64.64;101918.75;4938476;28;123613;-70
2023/02/21 09:58:12;;;;;;;19.40;7.68;;;;;;;12.07;64.97;101914.34;4953312;28;124681;-70
2023/02/21 10:00:41;;;;;;;21.98;8.00;;;;;;;12.11;64.88;101912.44;4950826;28;114588;-70
2023/02/21 10:03:48;;;;;;;21.80;8.32;;;;;;;12.14;64.81;101912.31;4953552;28;113775;-70
2023/02/21 10:06:24;;;;;;;20.35;8.50;;;;;;;12.16;64.87;101917.59;4902390;28;124176;-70
2023/02/21 10:09:15;;;;;;;23.15;8.65;;;;;;;12.18;64.73;101911.28;4950838;28;124373;-70
2023/02/21 10:12:01;;;;;;;23.15;9.00;;;;;;;12.19;64.76;101918.34;4940970;28;113365;-70
2023/02/21 10:14:47;;;;;;;20.25;8.52;;;;;;;12.21;64.89;101916.50;4950435;28;114546;-70
2023/02/21 10:17:33;;;;;;;;;;;;;;;12.23;64.77;101919.97;4933604;28;123063;-70
2023/02/21 10:20:10;;;;;;;23.10;8.18;;;;;;;12.24;64.63;101919.06;4950464;28;123209;-70
2023/02/21 10:22:41;;;;;;;21.35;9.00;;;;;;;12.26;64.84;101919.88;4953313;28;115353;-70
2023/02/21 10:25:32;;;;;;;24.35;9.27;;;;;;;12.31;64.88;101918.84;4934333;28;113074;-70
2023/02/21 10:27:59;;;;;;;26.55;9.70;;;;;;;12.35;64.66;101917.81;4947985;28;124074;-70
2023/02/21 10:30:36;;;;;;;27.20;9.93;;;;;;;12.38;64.69;101921.22;4951174;28;123897;-70
2023/02/21 10:33:07;;;;;;;25.02;9.73;;;;;;;12.38;64.47;101912.41;4935204;28;113294;-75
2023/02/21 10:35:37;;;;;;;23.50;10.02;;;;;;;12.38;64.62;101923.88;4952705;28;114326;-70
2023/02/21 10:38:17;;;;;;;21.02;9.65;;;;;;;12.38;64.71;101917.72;4934117;28;123123;-70
2023/02/21 10:40:50;;;;;;;20.00;8.75;;;;;;;12.38;64.51;101912.41;4934987;28;122916;-70
2023/02/21 10:43:24;;;;;;;21.83;9.20;;;;;;;12.39;64.77;101909.66;4932783;28;114789;-70
2023/02/21 10:46:11;;;;;;;21.33;9.48;;;;;;;12.42;64.69;101924.66;4933708;28;114674;-70
2023/02/21 10:48:41;;;;;;;19.80;8.88;;;;;;;12.44;64.65;101922.81;4950817;28;124101;-70
2023/02/21 10:51:12;;;;;;;21.60;8.60;;;;;;;12.47;64.66;101917.41;4924152;28;123861;-70
2023/02/21 10:53:42;;;;;;;21.33;8.32;;;;;;;12.49;64.55;101915.56;4946887;28;114650;-70
2023/02/21 10:56:18;;;;;;;22.55;9.23;;;;;;;12.51;64.55;101919.00;4953225;28;114321;-70
2023/02/21 10:58:52;;;;;;;20.90;8.45;;;;;;;12.53;64.54;101917.16;4915744;28;124224;-69
2023/02/21 11:01:24;;;;;;;23.13;8.50;;;;;;;12.54;64.58;101918.88;4924482;28;124014;-69
2023/02/21 11:03:55;;;;;;;19.35;8.35;;;;;;;12.55;64.45;101925.94;4948842;28;114583;-69
2023/02/21 11:06:31;;;;;;;18.95;8.30;;;;;;;12.58;64.43;101920.53;4925328;28;114067;-68
2023/02/21 11:08:59;;;;;;;19.42;8.30;;;;;;;12.60;64.48;101913.38;4932417;28;123794;-72
2023/02/21 11:11:34;;;;;;;17.75;7.82;;;;;;;12.61;64.39;101915.09;4949441;28;124552;-68
2023/02/21 11:14:32;;;;;;;18.63;8.40;;;;;;;12.61;64.33;101909.78;4949008;28;114332;-68
2023/02/21 11:17:18;;;;;;;18.80;7.78;;;;;;;12.62;64.38;101915.94;4948599;28;114152;-68
2023/02/21 11:19:49;;;;;;;20.13;8.20;;;;;;;12.62;64.33;101911.53;4949254;28;123301;-68
2023/02/21 11:22:45;;;;;;;18.15;8.07;;;;;;;12.62;64.37;101900.88;4950480;28;124297;-69
2023/02/21 11:25:25;;;;;;;18.50;8.32;;;;;;;12.64;64.22;101892.88;4947779;28;114164;-69
2023/02/21 11:28:08;;;;;;;19.80;8.70;;;;;;;12.65;64.16;101899.91;4947383;28;113206;-68
2023/02/21 11:30:40;;;;;;;19.92;8.63;;;;;;;12.66;64.28;101891.88;4926749;28;124446;-68
2023/02/21 11:33:08;;;;;;;21.63;8.80;;;;;;;12.69;64.29;101895.34;4934743;28;125844;-69
2023/02/21 11:35:45;;;;;;;20.83;8.00;;;;;;;12.70;64.25;101886.47;4933422;28;114416;-68
2023/02/21 11:38:34;;;;;;;20.63;8.45;;;;;;;12.73;64.15;101896.97;4940348;28;115242;-68
2023/02/21 11:41:15;;;;;;;22.25;8.13;;;;;;;12.71;64.12;101888.16;4949216;28;124641;-68
2023/02/21 11:43:49;;;;;;;19.08;8.10;;;;;;;12.72;64.09;101884.59;4950473;28;124233;-68
2023/02/21 11:46:32;;;;;;;16.23;7.55;;;;;;;12.72;64.04;101879.28;4932873;28;113311;-69
2023/02/21 11:49:11;;;;;;;18.38;7.68;;;;;;;12.73;64.06;101875.69;4948552;28;112920;-69
2023/02/21 11:51:44;;;;;;;17.52;8.48;;;;;;;12.74;64.10;101877.44;4932137;28;123709;-69
2023/02/21 11:54:12;;;;;;;16.98;7.63;;;;;;;12.75;64.18;101884.47;4932431;28;123832;-69
2023/02/21 11:56:53;;;;;;;15.23;7.72;;;;;;;12.77;64.13;101883.50;4948849;28;114250;-69
2023/02/21 11:59:29;;;;;;;16.85;7.75;;;;;;;12.81;64.06;101881.59;4947647;28;114434;-69
2023/02/21 12:02:15;;;;;;;20.98;7.63;;;;;;;12.83;64.04;101882.41;4946691;28;123792;-69
2023/02/21 12:04:57;;;;;;;18.42;7.60;;;;;;;12.86;64.12;101876.97;4931377;28;122857;-70
2023/02/21 12:07:24;;;;;;;15.10;7.10;;;;;;;12.87;63.95;101870.72;4949705;28;114462;-70
2023/02/21 12:10:06;;;;;;;16.85;7.60;;;;;;;12.88;63.93;101864.47;4930104;28;114381;-70
2023/02/21 12:12:55;;;;;;;16.98;7.60;;;;;;;12.90;63.94;101865.28;4930589;28;124352;-70
2023/02/21 12:15:58;;;;;;;17.02;7.68;;;;;;;12.93;63.97;101861.66;4930124;28;123048;-70
2023/02/21 12:18:38;;;;;;;17.50;7.85;;;;;;;12.97;63.83;101856.13;4911438;28;113903;-70
2023/02/21 12:21:16;;;;;;;17.15;7.72;;;;;;;12.99;63.97;101856.94;4947102;28;113918;-70
2023/02/21 12:24:07;;;;;;;17.30;7.65;;;;;;;13.05;63.94;101851.41;4948296;28;123938;-70
2023/02/21 12:26:56;;;;;;;16.60;7.40;;;;;;;13.09;63.86;101851.25;4946046;28;122983;-70
2023/02/21 12:29:36;;;;;;;16.30;7.47;;;;;;;13.13;63.76;101853.75;4931497;28;114317;-70
2023/02/21 12:32:39;;;;;;;22.20;7.97;;;;;;;13.15;63.84;101843.06;4949678;28;115272;-70
2023/02/21 12:35:40;;;;;;;15.55;7.47;;;;;;;13.17;63.68;101849.19;4909473;28;123785;-70
2023/02/21 12:38:26;;;;;;;14.02;6.80;;;;;;;13.16;63.60;101842.13;4946795;28;125570;-70
2023/02/21 12:40:59;;;;;;;;;;;;;;;13.14;63.75;101844.84;4950854;28;113757;-70
2023/02/21 12:43:55;;;;;;;15.93;7.28;;;;;;;13.16;63.44;101842.13;4948537;28;113613;-70
2023/02/21 12:46:39;;;;;;;14.23;6.82;;;;;;;13.15;63.60;101840.41;4950194;28;124925;-70
2023/02/21 12:49:35;;;;;;;14.25;6.75;;;;;;;13.16;63.56;101839.47;4951352;28;123953;-70
2023/02/21 12:52:15;;;;;;;16.67;7.30;;;;;;;13.16;63.40;101836.81;4950378;28;114610;-70
2023/02/21 12:55:02;;;;;;;15.48;7.18;;;;;;;13.18;63.52;101834.94;4951985;28;113580;-70
2023/02/21 12:58:12;;;;;;;15.57;7.15;;;;;;;13.21;63.50;101826.84;4953391;28;124055;-70
2023/02/21 13:00:48;;;;;;;15.18;7.35;;;;;;;13.25;63.46;101825.78;4933932;28;122820;-70
2023/02/21 13:03:35;;;;;;;14.95;6.65;;;;;;;13.27;63.30;101823.94;4944461;28;114994;-70
2023/02/21 13:06:27;;;;;;;14.90;7.13;;;;;;;13.29;63.16;101822.06;4942861;28;113824;-70
2023/02/21 13:09:06;;;;;;;13.98;6.78;;;;;;;13.29;63.20;101822.06;4945580;28;123019;-70
2023/02/21 13:11:39;;;;;;;14.07;6.43;;;;;;;13.30;63.08;101818.53;4950919;28;123879;-70
2023/02/21 13:14:11;;;;;;;;;;;;;;;13.29;63.24;101822.06;4951355;28;114342;-70
2023/02/21 13:16:39;;;;;;;13.82;6.68;;;;;;;13.30;63.08;101813.22;4949259;28;114746;-70
2023/02/21 13:19:10;;;;;;;15.50;6.65;;;;;;;13.29;62.97;101811.44;4934344;28;123091;-70
2023/02/21 13:22:24;;;;;;;12.75;6.25;;;;;;;13.30;63.13;101810.56;4933551;28;124465;-70
2023/02/21 13:25:19;;;;;;;14.45;6.50;;;;;;;13.30;62.97;101807.91;4904265;28;116083;-70
2023/02/21 13:27:52;;;;;;;14.10;6.93;;;;;;;13.31;63.03;101808.75;4952637;28;115500;-70
2023/02/21 13:30:50;;;;;;;15.13;6.75;;;;;;;13.31;62.86;101804.28;4950826;28;124020;-70
2023/02/21 13:33:37;;;;;;;15.30;6.53;;;;;;;13.31;62.65;101801.63;4914665;28;123770;-70
2023/02/21 13:36:38;;;;;;;13.32;6.18;;;;;;;13.31;62.86;101793.66;4949100;28;114719;-70
2023/02/21 13:39:08;;;;;;;11.52;5.75;;;;;;;13.32;63.07;101790.06;4950674;28;113918;-70
2023/02/21 13:41:39;;;;;;;15.07;6.20;;;;;;;13.35;62.83;101791.72;4951566;28;123893;-70
2023/02/21 13:44:11;;;;;;;10.93;5.47;;;;;;;13.37;62.85;101793.41;4934836;28;123784;-70
2023/02/21 13:46:38;;;;;;;11.40;5.88;;;;;;;13.37;62.39;101790.75;4952243;28;114189;-70
2023/02/21 13:49:41;;;;;;;12.60;5.63;;;;;;;13.37;62.60;101788.09;4935893;28;113216;-70
2023/02/21 13:52:24;;;;;;;9.13;4.93;;;;;;;13.39;62.52;101790.66;4950472;28;124239;-70